Time;durP1;ratioP1;P1;durP2;ratioP2;P2;SDS_P1;SDS_P2;PMS_P1;PMS_P2;Temp;Humidity;BMP_temperature;BMP_pressure;BME280_temperature;BME280_humidity;BME280_pressure;Samples;Min_cycle;Max_cycle;Signal;HPM_P1;HPM_P2
2021/10/05 00:00:12;;;;;;;10.65;6.38;;;10.20;92.40;;;;;;5077418;28;20488;-74
2021/10/05 00:02:38;;;;;;;10.25;5.93;;;10.20;92.30;;;;;;5077528;28;20040;-75
2021/10/05 00:05:05;;;;;;;10.60;6.00;;;10.20;92.50;;;;;;5077269;28;20056;-74
2021/10/05 00:07:31;;;;;;;10.45;6.78;;;10.30;91.80;;;;;;5071443;28;20032;-76
2021/10/05 00:09:56;;;;;;;10.93;6.40;;;10.30;92.30;;;;;;5076449;28;20425;-75
2021/10/05 00:12:23;;;;;;;12.45;7.10;;;10.30;91.80;;;;;;5077715;28;20020;-75
2021/10/05 00:14:50;;;;;;;12.98;7.15;;;10.30;92.80;;;;;;5077214;28;20045;-75
2021/10/05 00:17:18;;;;;;;19.40;10.07;;;10.30;93.00;;;;;;5070301;28;20024;-75
2021/10/05 00:19:43;;;;;;;25.40;12.48;;;10.30;92.20;;;;;;5077141;28;20055;-75
2021/10/05 00:22:09;;;;;;;17.85;9.93;;;10.30;92.70;;;;;;5076193;28;20417;-76
2021/10/05 00:24:34;;;;;;;16.65;9.45;;;10.20;92.60;;;;;;5077312;28;20316;-75
2021/10/05 00:27:00;;;;;;;22.25;11.80;;;10.20;92.50;;;;;;5073892;28;20433;-76
2021/10/05 00:29:26;;;;;;;27.60;12.90;;;10.20;92.40;;;;;;5077136;28;20103;-76
2021/10/05 00:31:51;;;;;;;24.48;13.88;;;10.20;92.20;;;;;;5077048;28;20032;-73
2021/10/05 00:34:17;;;;;;;22.63;13.13;;;10.20;91.90;;;;;;5076706;28;20110;-73
2021/10/05 00:36:46;;;;;;;27.83;14.15;;;10.20;91.70;;;;;;5075706;28;20419;-73
2021/10/05 00:39:11;;;;;;;18.40;11.52;;;10.20;92.00;;;;;;5067922;28;20028;-73
2021/10/05 00:41:37;;;;;;;19.05;11.30;;;10.20;91.80;;;;;;5076488;28;20025;-73
2021/10/05 00:44:03;;;;;;;26.23;13.95;;;10.30;91.70;;;;;;5076987;28;20032;-74
2021/10/05 00:46:29;;;;;;;20.52;12.90;;;10.30;91.60;;;;;;5069565;28;20032;-74
2021/10/05 00:48:55;;;;;;;22.08;11.80;;;10.30;91.70;;;;;;5076502;28;20028;-75
2021/10/05 00:51:23;;;;;;;25.15;14.20;;;10.30;92.10;;;;;;5076853;28;20210;-73
2021/10/05 00:53:49;;;;;;;21.75;13.00;;;10.30;91.70;;;;;;5073657;28;20032;-75
2021/10/05 00:56:14;;;;;;;26.23;15.45;;;10.30;91.60;;;;;;5076282;28;20294;-73
2021/10/05 00:58:40;;;;;;;30.35;16.33;;;10.30;91.70;;;;;;5077221;28;20051;-73
2021/10/05 01:01:06;;;;;;;21.17;12.43;;;10.30;91.40;;;;;;5076749;28;20417;-75
2021/10/05 01:03:32;;;;;;;15.57;9.60;;;10.30;91.90;;;;;;5076503;28;20040;-73
2021/10/05 01:05:57;;;;;;;15.95;9.40;;;10.20;91.60;;;;;;5075853;28;20055;-73
2021/10/05 01:08:23;;;;;;;15.73;9.65;;;10.20;91.90;;;;;;5075384;28;20405;-73
2021/10/05 01:10:49;;;;;;;15.43;9.48;;;10.20;92.70;;;;;;5076158;28;20064;-73
2021/10/05 01:13:15;;;;;;;16.70;10.55;;;10.20;92.30;;;;;;5074687;28;20024;-73
2021/10/05 01:15:40;;;;;;;19.85;12.38;;;10.20;92.70;;;;;;5067900;28;20044;-74
2021/10/05 01:18:06;;;;;;;23.50;14.55;;;10.20;92.80;;;;;;5075305;28;20083;-74
2021/10/05 01:20:51;;;;;;;37.83;17.80;;;10.30;93.00;;;;;;5074636;28;20028;-74
2021/10/05 01:23:17;;;;;;;23.55;14.68;;;10.30;93.00;;;;;;5073481;28;20023;-74
2021/10/05 01:25:43;;;;;;;36.42;17.70;;;10.30;92.60;;;;;;5075928;28;20039;-74
2021/10/05 01:28:08;;;;;;;22.17;13.40;;;10.30;93.00;;;;;;5075236;28;20028;-75
2021/10/05 01:30:34;;;;;;;24.02;13.95;;;10.30;93.00;;;;;;5074780;28;20317;-74
2021/10/05 01:33:00;;;;;;;25.10;14.75;;;10.30;92.90;;;;;;5074684;28;20021;-74
2021/10/05 01:35:25;;;;;;;22.40;13.35;;;10.20;92.80;;;;;;5075506;28;20029;-73
2021/10/05 01:37:51;;;;;;;26.73;15.23;;;10.20;92.60;;;;;;5071070;28;20025;-74
2021/10/05 01:40:17;;;;;;;24.35;14.55;;;10.20;92.60;;;;;;5075698;28;20295;-74
2021/10/05 01:42:42;;;;;;;26.38;12.98;;;10.20;92.80;;;;;;5073826;28;20074;-74
2021/10/05 01:45:09;;;;;;;18.20;11.93;;;10.20;92.40;;;;;;5075977;28;20051;-74
2021/10/05 01:47:35;;;;;;;30.00;14.90;;;10.20;92.30;;;;;;5074610;28;20027;-75
2021/10/05 01:50:00;;;;;;;35.95;17.02;;;10.20;92.50;;;;;;5071180;28;20060;-74
2021/10/05 01:52:26;;;;;;;30.90;17.10;;;10.20;92.50;;;;;;5064622;28;20021;-75
2021/10/05 01:54:52;;;;;;;42.85;18.95;;;10.20;91.90;;;;;;5075304;28;20472;-75
2021/10/05 01:57:17;;;;;;;36.58;19.30;;;10.20;92.40;;;;;;5073625;28;20336;-75
2021/10/05 01:59:43;;;;;;;31.02;15.98;;;10.20;92.30;;;;;;5069921;28;20024;-74
2021/10/05 02:02:09;;;;;;;30.17;17.40;;;10.10;92.20;;;;;;5074622;28;20028;-74
2021/10/05 02:04:34;;;;;;;29.63;17.27;;;10.10;92.10;;;;;;5074900;28;20021;-74
2021/10/05 02:07:01;;;;;;;39.55;20.33;;;10.10;92.00;;;;;;5074139;28;20321;-74
2021/10/05 02:09:27;;;;;;;25.10;15.27;;;10.10;91.90;;;;;;5075394;28;20291;-74
2021/10/05 02:11:53;;;;;;;33.25;17.42;;;10.10;91.50;;;;;;5073500;28;20077;-73
2021/10/05 02:14:19;;;;;;;33.97;18.80;;;10.10;91.80;;;;;;5075067;28;20013;-73
2021/10/05 02:16:45;;;;;;;27.77;17.17;;;10.10;92.10;;;;;;5075150;28;20333;-73
2021/10/05 02:19:11;;;;;;;45.42;20.60;;;10.10;91.60;;;;;;5074231;28;20051;-73
2021/10/05 02:21:40;;;;;;;37.15;17.42;;;10.10;91.90;;;;;;5072159;28;20433;-73
2021/10/05 02:26:44;;;;;;;39.05;17.73;;;10.10;92.00;;;;;;5074613;28;20098;-74
2021/10/05 02:29:10;;;;;;;29.48;15.02;;;10.10;92.30;;;;;;5075086;28;20056;-74
2021/10/05 02:31:36;;;;;;;22.70;13.48;;;10.10;91.70;;;;;;5074754;28;20063;-75
2021/10/05 02:34:02;;;;;;;26.88;14.02;;;10.10;91.50;;;;;;5073767;28;20042;-75
2021/10/05 02:36:30;;;;;;;18.80;12.05;;;10.10;91.90;;;;;;5074632;28;20032;-75
2021/10/05 02:38:56;;;;;;;20.23;12.00;;;10.10;91.50;;;;;;5072588;28;20040;-74
2021/10/05 02:41:21;;;;;;;27.23;14.18;;;10.10;91.40;;;;;;5073086;28;20024;-74
2021/10/05 02:43:47;;;;;;;24.75;13.10;;;10.10;91.90;;;;;;5075100;28;20063;-75
2021/10/05 02:46:13;;;;;;;22.73;11.68;;;10.10;91.90;;;;;;5074664;28;20047;-74
2021/10/05 02:48:39;;;;;;;22.20;12.85;;;10.10;91.70;;;;;;5074661;28;20068;-75
2021/10/05 02:51:04;;;;;;;24.75;13.07;;;10.10;91.80;;;;;;5074409;28;20329;-75
2021/10/05 02:53:30;;;;;;;22.35;11.82;;;10.10;91.80;;;;;;5073997;28;20103;-75
2021/10/05 02:55:56;;;;;;;23.48;12.60;;;10.10;91.80;;;;;;5067752;28;20353;-75
2021/10/05 02:58:21;;;;;;;31.08;14.75;;;10.10;91.80;;;;;;5074516;28;20127;-76
2021/10/05 03:00:47;;;;;;;23.90;13.25;;;10.10;92.10;;;;;;5073838;28;20033;-76
2021/10/05 03:03:13;;;;;;;39.83;16.77;;;10.10;91.80;;;;;;5065916;28;20029;-76
2021/10/05 03:05:38;;;;;;;36.95;17.05;;;10.00;92.00;;;;;;5057442;28;20424;-75
2021/10/05 03:08:06;;;;;;;43.60;20.05;;;10.00;92.00;;;;;;5059483;28;20413;-75
2021/10/05 03:10:35;;;;;;;27.98;14.30;;;10.00;91.80;;;;;;5074690;28;20502;-75
2021/10/05 03:13:01;;;;;;;29.60;14.23;;;10.00;92.00;;;;;;5068787;28;20028;-76
2021/10/05 03:15:27;;;;;;;36.25;14.95;;;10.00;92.10;;;;;;5074468;28;20352;-75
2021/10/05 03:17:53;;;;;;;41.70;16.85;;;9.90;91.90;;;;;;5069966;28;20044;-75
2021/10/05 03:20:18;;;;;;;47.88;17.00;;;9.90;91.80;;;;;;5071485;28;20032;-75
2021/10/05 03:22:44;;;;;;;40.42;17.45;;;9.90;92.00;;;;;;5069715;28;20020;-75
2021/10/05 03:25:10;;;;;;;55.47;16.65;;;9.90;91.50;;;;;;5073940;28;20028;-74
2021/10/05 03:27:36;;;;;;;29.63;14.07;;;9.90;91.40;;;;;;5056690;28;20071;-73
2021/10/05 03:30:06;;;;;;;40.08;14.88;;;9.90;91.00;;;;;;5062513;28;20029;-73
2021/10/05 03:32:32;;;;;;;27.48;13.38;;;10.00;91.30;;;;;;5059311;28;20018;-73
2021/10/05 03:34:58;;;;;;;23.15;12.35;;;9.90;91.30;;;;;;5067321;28;20093;-73
2021/10/05 03:37:24;;;;;;;24.33;12.38;;;9.90;91.20;;;;;;5072872;28;20120;-75
2021/10/05 03:39:50;;;;;;;27.40;13.57;;;9.90;91.20;;;;;;5073395;28;20461;-75
2021/10/05 03:42:16;;;;;;;27.15;13.98;;;9.90;91.60;;;;;;5070570;28;20413;-75
2021/10/05 03:44:41;;;;;;;27.10;14.38;;;9.90;91.70;;;;;;5074357;28;20028;-75
2021/10/05 03:47:07;;;;;;;43.85;15.90;;;9.80;91.50;;;;;;5074158;28;20086;-75
2021/10/05 03:49:33;;;;;;;46.85;16.45;;;9.90;91.00;;;;;;5073386;28;20089;-75
2021/10/05 03:51:58;;;;;;;32.60;14.10;;;9.90;90.90;;;;;;5070429;28;20017;-75
2021/10/05 03:54:24;;;;;;;31.70;15.82;;;9.90;91.50;;;;;;5077664;28;20017;-75
2021/10/05 03:56:50;;;;;;;40.70;15.20;;;9.80;91.40;;;;;;5074257;28;20470;-74
2021/10/05 03:59:15;;;;;;;35.95;15.05;;;9.80;91.20;;;;;;5077322;28;20587;-74
2021/10/05 04:01:44;;;;;;;44.90;15.95;;;9.80;90.90;;;;;;5075505;28;20421;-74
2021/10/05 04:04:10;;;;;;;32.22;15.82;;;9.80;90.90;;;;;;5077456;28;20126;-75
2021/10/05 04:06:35;;;;;;;48.88;18.48;;;9.80;90.80;;;;;;5077565;28;20032;-77
2021/10/05 04:09:06;;;;;;;36.67;15.40;;;9.80;90.60;;;;;;5076572;28;20029;-76
2021/10/05 04:11:32;;;;;;;35.70;14.15;;;9.90;90.70;;;;;;5077435;28;20035;-77
2021/10/05 04:13:58;;;;;;;23.48;11.25;;;9.90;90.70;;;;;;5073919;28;20312;-76
2021/10/05 04:16:24;;;;;;;28.38;11.27;;;9.80;90.70;;;;;;5075635;28;20028;-76
2021/10/05 04:18:49;;;;;;;27.70;10.85;;;9.90;90.30;;;;;;5076075;28;20049;-75
2021/10/05 04:21:15;;;;;;;35.65;12.45;;;9.90;90.60;;;;;;5076482;28;20104;-75
2021/10/05 04:23:41;;;;;;;14.63;8.25;;;9.90;90.50;;;;;;5068696;28;20063;-75
2021/10/05 04:26:06;;;;;;;16.30;8.88;;;9.90;90.20;;;;;;5074548;28;20035;-74
2021/10/05 04:28:32;;;;;;;22.88;10.40;;;9.90;90.50;;;;;;5077475;28;20317;-75
2021/10/05 04:30:58;;;;;;;33.78;11.20;;;9.90;90.50;;;;;;5069857;28;20107;-76
2021/10/05 04:33:23;;;;;;;109.65;14.68;;;9.80;90.60;;;;;;5060841;28;20021;-75
2021/10/05 04:35:50;;;;;;;79.65;14.05;;;9.80;90.40;;;;;;5076711;28;20051;-74
2021/10/05 04:38:15;;;;;;;50.63;14.38;;;9.80;90.50;;;;;;5074130;28;20314;-73
2021/10/05 04:40:41;;;;;;;170.55;17.73;;;9.80;90.50;;;;;;5064760;28;20039;-74
2021/10/05 04:43:07;;;;;;;43.25;14.63;;;9.80;90.40;;;;;;5072383;28;20021;-74
2021/10/05 04:45:32;;;;;;;46.70;15.73;;;9.70;90.30;;;;;;5063499;28;20024;-73
2021/10/05 04:47:58;;;;;;;45.42;14.82;;;9.70;89.90;;;;;;5075535;28;20309;-73
2021/10/05 04:50:24;;;;;;;59.20;15.77;;;9.70;89.60;;;;;;5075260;28;20290;-73
2021/10/05 04:52:50;;;;;;;58.13;17.17;;;9.70;89.70;;;;;;5067316;28;20037;-73
2021/10/05 04:55:16;;;;;;;217.63;20.40;;;9.80;89.80;;;;;;5060453;28;20021;-72
2021/10/05 04:57:42;;;;;;;211.75;20.67;;;9.80;89.60;;;;;;5075174;28;20025;-73
2021/10/05 05:00:09;;;;;;;27.15;14.98;;;9.70;89.80;;;;;;5069882;28;20032;-73
2021/10/05 05:02:35;;;;;;;100.60;16.48;;;9.70;89.30;;;;;;5055645;28;20032;-73
2021/10/05 05:05:01;;;;;;;330.38;24.25;;;9.70;89.40;;;;;;5066506;28;20033;-74
2021/10/05 05:07:26;;;;;;;334.27;41.63;;;9.70;89.60;;;;;;5064788;28;20771;-73
2021/10/05 05:09:52;;;;;;;170.75;24.50;;;9.70;89.30;;;;;;5055180;28;20028;-74
2021/10/05 05:12:18;;;;;;;175.45;21.10;;;9.70;89.40;;;;;;5060412;28;20056;-74
2021/10/05 05:14:43;;;;;;;205.48;21.02;;;9.70;89.00;;;;;;5058242;28;20037;-74
2021/10/05 05:17:09;;;;;;;164.02;21.55;;;9.70;89.10;;;;;;5075475;28;20183;-74
2021/10/05 05:19:35;;;;;;;112.70;18.40;;;9.70;88.90;;;;;;5076534;28;20040;-73
2021/10/05 05:22:00;;;;;;;295.60;23.42;;;9.60;88.90;;;;;;5067182;28;20040;-73
2021/10/05 05:24:27;;;;;;;45.38;14.40;;;9.60;89.00;;;;;;5072032;28;20025;-73
2021/10/05 05:26:54;;;;;;;26.58;13.55;;;9.60;88.80;;;;;;5066553;28;20029;-74
2021/10/05 05:29:20;;;;;;;153.20;18.13;;;9.70;88.80;;;;;;5056485;28;20029;-73
2021/10/05 05:31:45;;;;;;;320.15;19.80;;;9.70;89.00;;;;;;5062419;28;20031;-73
2021/10/05 05:34:11;;;;;;;91.40;15.38;;;9.60;89.10;;;;;;5076594;28;20103;-73
2021/10/05 05:36:37;;;;;;;202.65;17.80;;;9.60;89.00;;;;;;5063118;28;20329;-73
2021/10/05 05:39:04;;;;;;;90.22;14.93;;;9.60;88.70;;;;;;5074866;28;20024;-73
2021/10/05 05:41:30;;;;;;;34.15;13.55;;;9.70;88.80;;;;;;5068351;28;20032;-73
2021/10/05 05:43:55;;;;;;;19.90;11.77;;;9.70;88.90;;;;;;5079937;28;20412;-73
2021/10/05 05:46:24;;;;;;;22.98;12.55;;;9.70;88.90;;;;;;5092678;28;20042;-72
2021/10/05 05:48:50;;;;;;;36.60;14.05;;;9.70;88.60;;;;;;5068994;28;20040;-72
2021/10/05 05:51:15;;;;;;;64.40;15.77;;;9.70;88.60;;;;;;5067022;28;20032;-72
2021/10/05 05:53:41;;;;;;;25.45;13.23;;;9.80;88.50;;;;;;5074738;28;20103;-73
2021/10/05 05:56:07;;;;;;;35.38;15.18;;;9.80;88.30;;;;;;5061891;28;20314;-72
2021/10/05 05:58:33;;;;;;;53.13;15.48;;;9.90;88.30;;;;;;5068717;28;20099;-72
2021/10/05 06:00:58;;;;;;;49.90;15.75;;;9.90;88.60;;;;;;5059069;28;20393;-72
2021/10/05 06:03:24;;;;;;;30.52;13.32;;;9.80;88.60;;;;;;5055990;28;20025;-72
2021/10/05 06:05:50;;;;;;;34.00;13.98;;;9.80;88.50;;;;;;5055676;28;20063;-73
2021/10/05 06:08:15;;;;;;;22.23;11.40;;;9.80;88.70;;;;;;5062921;28;20436;-72
2021/10/05 06:10:42;;;;;;;31.20;13.23;;;9.80;88.70;;;;;;5062851;28;20033;-72
2021/10/05 06:13:11;;;;;;;36.47;15.50;;;9.80;88.50;;;;;;5072933;28;20021;-72
2021/10/05 06:15:39;;;;;;;59.70;16.00;;;9.90;88.40;;;;;;5066006;28;20094;-71
2021/10/05 06:18:05;;;;;;;53.10;16.55;;;9.90;88.80;;;;;;5065698;28;20036;-73
2021/10/05 06:20:32;;;;;;;39.33;14.95;;;9.90;88.50;;;;;;5073292;28;20051;-71
2021/10/05 06:22:58;;;;;;;37.42;14.63;;;9.90;88.70;;;;;;5072630;28;20439;-71
2021/10/05 06:25:27;;;;;;;36.75;14.48;;;9.90;88.80;;;;;;5073226;28;20020;-72
2021/10/05 06:27:56;;;;;;;46.67;17.38;;;9.90;88.60;;;;;;5064300;28;20534;-71
2021/10/05 06:30:26;;;;;;;44.38;18.70;;;9.90;88.50;;;;;;5066156;28;20052;-71
2021/10/05 06:32:55;;;;;;;74.03;17.88;;;10.00;88.20;;;;;;5067426;28;20016;-72
2021/10/05 06:35:24;;;;;;;46.50;17.15;;;10.00;88.80;;;;;;5054744;28;20071;-72
2021/10/05 06:37:53;;;;;;;52.47;18.48;;;10.00;88.40;;;;;;5065657;28;20111;-72
2021/10/05 06:40:20;;;;;;;48.90;16.92;;;10.00;88.80;;;;;;5074615;28;20031;-72
2021/10/05 06:42:45;;;;;;;41.60;16.88;;;10.00;88.30;;;;;;5062417;28;20395;-72
2021/10/05 06:45:11;;;;;;;43.45;16.65;;;10.00;88.70;;;;;;5068393;28;20108;-72
2021/10/05 06:47:39;;;;;;;90.18;18.90;;;10.00;88.90;;;;;;5063402;28;20083;-72
2021/10/05 06:50:06;;;;;;;56.90;17.95;;;10.00;89.10;;;;;;5062692;28;20033;-72
2021/10/05 06:52:32;;;;;;;49.53;17.38;;;10.00;89.50;;;;;;5055470;28;20028;-71
2021/10/05 06:54:58;;;;;;;60.10;19.10;;;10.00;89.60;;;;;;5069370;28;20033;-72
2021/10/05 06:57:23;;;;;;;35.63;15.73;;;9.90;89.60;;;;;;5072790;28;20032;-71
2021/10/05 06:59:49;;;;;;;34.30;14.63;;;10.00;89.50;;;;;;5073340;28;20025;-71
2021/10/05 07:02:15;;;;;;;28.33;14.43;;;9.90;89.50;;;;;;5058064;28;20066;-72
2021/10/05 07:04:40;;;;;;;27.15;13.70;;;10.00;89.10;;;;;;5062616;28;20044;-72
2021/10/05 07:07:06;;;;;;;28.05;14.27;;;10.10;89.70;;;;;;5055159;28;20027;-72
2021/10/05 07:09:31;;;;;;;29.15;14.07;;;10.10;89.60;;;;;;5063449;28;20103;-72
2021/10/05 07:11:57;;;;;;;23.98;13.57;;;10.20;89.20;;;;;;5070495;28;20025;-73
2021/10/05 07:14:23;;;;;;;20.75;12.38;;;10.30;88.80;;;;;;5055307;28;20021;-72
2021/10/05 07:16:49;;;;;;;19.05;11.35;;;10.50;89.00;;;;;;5069929;28;20391;-72
2021/10/05 07:19:14;;;;;;;19.02;11.02;;;10.70;89.20;;;;;;5074189;28;20050;-72
2021/10/05 07:21:40;;;;;;;16.23;10.00;;;10.80;90.10;;;;;;5071405;28;20041;-71
2021/10/05 07:24:06;;;;;;;13.55;8.82;;;11.00;90.00;;;;;;5063527;28;20021;-72
2021/10/05 07:26:32;;;;;;;10.65;7.20;;;10.90;93.80;;;;;;5062741;28;20034;-72
2021/10/05 07:28:57;;;;;;;15.00;9.27;;;10.80;94.80;;;;;;5070817;28;20290;-72
2021/10/05 07:31:25;;;;;;;14.45;8.95;;;10.80;95.30;;;;;;5076692;28;20024;-72
2021/10/05 07:33:51;;;;;;;12.13;7.28;;;10.90;95.10;;;;;;5077769;28;20514;-71
2021/10/05 07:36:18;;;;;;;11.07;7.13;;;10.80;96.50;;;;;;5077773;28;20025;-72
2021/10/05 07:38:44;;;;;;;8.88;5.80;;;10.80;96.30;;;;;;5072742;28;20060;-71
2021/10/05 07:41:10;;;;;;;10.05;6.35;;;11.00;96.70;;;;;;5076383;28;20056;-73
2021/10/05 07:43:36;;;;;;;10.05;5.68;;;11.00;97.10;;;;;;5071672;28;20503;-73
2021/10/05 07:46:02;;;;;;;10.05;6.13;;;11.20;97.00;;;;;;5065847;28;20056;-72
2021/10/05 07:48:29;;;;;;;9.52;5.43;;;11.30;98.00;;;;;;5059276;28;20414;-72
2021/10/05 07:50:54;;;;;;;10.80;6.70;;;11.40;97.60;;;;;;5074979;28;20029;-72
2021/10/05 07:53:20;;;;;;;16.70;9.77;;;11.60;97.40;;;;;;5068261;28;20373;-72
2021/10/05 07:55:46;;;;;;;13.23;8.57;;;11.90;98.00;;;;;;5071955;28;20128;-72
2021/10/05 07:58:12;;;;;;;8.85;5.55;;;12.10;98.00;;;;;;5071074;28;20318;-73
2021/10/05 08:00:37;;;;;;;6.22;3.90;;;12.40;98.00;;;;;;5058462;28;20359;-72
2021/10/05 08:03:03;;;;;;;6.40;3.72;;;12.60;98.00;;;;;;5067090;28;20333;-72
2021/10/05 08:05:29;;;;;;;6.78;3.65;;;12.80;98.00;;;;;;5063679;28;20075;-71
2021/10/05 08:07:57;;;;;;;5.28;3.00;;;13.00;98.00;;;;;;5067192;28;20025;-72
2021/10/05 08:10:23;;;;;;;5.63;3.10;;;13.10;98.00;;;;;;5062285;28;20035;-73
2021/10/05 08:12:49;;;;;;;5.13;2.97;;;13.20;98.00;;;;;;5076656;28;20050;-71
2021/10/05 08:15:14;;;;;;;6.80;3.75;;;13.10;98.00;;;;;;5059931;28;20021;-70
2021/10/05 08:17:40;;;;;;;7.38;4.55;;;13.10;98.00;;;;;;5067134;28;20366;-71
2021/10/05 08:20:08;;;;;;;7.80;4.68;;;13.00;98.00;;;;;;5075265;28;20024;-70
2021/10/05 08:22:34;;;;;;;8.50;4.82;;;12.90;98.00;;;;;;5072819;28;20017;-70
2021/10/05 08:25:03;;;;;;;8.15;4.60;;;12.80;98.00;;;;;;5058912;28;20040;-71
2021/10/05 08:27:31;;;;;;;7.53;4.75;;;12.50;98.00;;;;;;5065489;28;20078;-70
2021/10/05 08:29:57;;;;;;;6.97;4.53;;;12.50;98.00;;;;;;5069136;28;20074;-70
2021/10/05 08:32:23;;;;;;;8.63;4.47;;;12.60;98.00;;;;;;5061599;28;20025;-70
2021/10/05 08:34:49;;;;;;;7.97;4.43;;;12.70;98.00;;;;;;5057726;28;20605;-70
2021/10/05 08:37:15;;;;;;;7.22;4.32;;;12.80;98.00;;;;;;5070655;28;20795;-71
2021/10/05 08:39:41;;;;;;;7.70;4.28;;;12.60;98.00;;;;;;5075287;28;20035;-69
2021/10/05 08:42:07;;;;;;;6.85;3.53;;;12.50;98.00;;;;;;5062622;28;20079;-70
2021/10/05 08:44:33;;;;;;;7.50;4.15;;;12.60;98.00;;;;;;5064667;28;20024;-70
2021/10/05 08:47:00;;;;;;;6.30;3.50;;;12.70;98.00;;;;;;5073971;28;20374;-70
2021/10/05 08:49:26;;;;;;;5.47;3.50;;;12.90;98.00;;;;;;5074181;28;20032;-71
2021/10/05 08:51:54;;;;;;;6.25;4.18;;;13.10;98.00;;;;;;5072464;28;20032;-69
2021/10/05 08:54:21;;;;;;;7.93;4.72;;;13.30;98.00;;;;;;5075334;28;20153;-69
2021/10/05 08:56:47;;;;;;;7.35;4.75;;;13.20;98.00;;;;;;5069279;28;20032;-69
2021/10/05 08:59:15;;;;;;;7.70;4.70;;;12.90;98.00;;;;;;5071819;28;20048;-69
2021/10/05 09:01:41;;;;;;;8.18;4.80;;;13.00;98.00;;;;;;5071157;28;20033;-71
2021/10/05 09:04:10;;;;;;;9.43;5.57;;;13.00;98.00;;;;;;5057272;28;20036;-68
2021/10/05 09:06:38;;;;;;;7.03;3.78;;;13.00;98.00;;;;;;5067381;28;20420;-68
2021/10/05 09:09:08;;;;;;;9.75;4.82;;;13.10;98.00;;;;;;5065398;28;20032;-69
2021/10/05 09:11:43;;;;;;;8.32;4.78;;;13.10;98.00;;;;;;5066934;28;20368;-70
2021/10/05 09:14:09;;;;;;;6.63;4.30;;;13.20;98.00;;;;;;5060243;28;20016;-70
2021/10/05 09:16:36;;;;;;;8.55;4.43;;;13.20;98.00;;;;;;5066467;28;20033;-70
2021/10/05 09:19:08;;;;;;;7.45;4.47;;;13.20;98.00;;;;;;5058039;28;20135;-70
2021/10/05 09:21:45;;;;;;;6.70;4.22;;;13.10;98.00;;;;;;5068429;28;20524;-70
2021/10/05 09:24:27;;;;;;;9.95;4.85;;;13.20;98.00;;;;;;5075213;28;20036;-70
2021/10/05 09:26:57;;;;;;;7.57;4.13;;;13.30;98.00;;;;;;5074511;28;20533;-72
2021/10/05 09:29:35;;;;;;;6.05;3.75;;;13.30;98.00;;;;;;5073497;28;20037;-72
2021/10/05 09:32:02;;;;;;;5.72;3.40;;;13.40;98.00;;;;;;5056823;28;20360;-71
2021/10/05 09:34:55;;;;;;;10.63;5.07;;;13.60;98.00;;;;;;5068739;28;20396;-72
2021/10/05 09:37:28;;;;;;;5.80;3.15;;;13.90;98.00;;;;;;5058797;28;20103;-72
2021/10/05 09:39:59;;;;;;;6.05;3.40;;;13.90;98.00;;;;;;5067074;28;20025;-71
2021/10/05 09:42:29;;;;;;;5.90;2.95;;;13.70;98.00;;;;;;5067926;28;20103;-70
2021/10/05 09:45:07;;;;;;;6.57;3.50;;;13.30;98.00;;;;;;5062619;28;20033;-72
2021/10/05 09:47:38;;;;;;;6.93;3.47;;;13.20;98.00;;;;;;5069554;28;20536;-71
2021/10/05 09:50:17;;;;;;;6.63;3.58;;;13.10;98.00;;;;;;5057201;28;20072;-71
2021/10/05 09:52:52;;;;;;;5.03;2.45;;;13.30;98.00;;;;;;5058855;28;20316;-70
2021/10/05 09:55:20;;;;;;;10.85;4.70;;;13.30;98.00;;;;;;5072438;28;20074;-72
2021/10/05 09:57:46;;;;;;;6.45;3.55;;;13.50;98.00;;;;;;5059128;28;20035;-72
2021/10/05 10:00:13;;;;;;;10.10;5.57;;;13.90;98.00;;;;;;5060608;28;20032;-72
2021/10/05 10:02:41;;;;;;;8.55;2.75;;;13.90;98.00;;;;;;5070703;28;20038;-72
2021/10/05 10:05:09;;;;;;;5.85;2.55;;;14.10;98.00;;;;;;5063969;28;20036;-72
2021/10/05 10:07:43;;;;;;;5.07;2.60;;;14.40;98.00;;;;;;5063689;28;20332;-71
2021/10/05 10:10:19;;;;;;;5.65;2.90;;;14.70;98.00;;;;;;5056313;28;20097;-72
2021/10/05 10:13:07;;;;;;;6.88;2.78;;;14.90;97.90;;;;;;5056728;28;20375;-72
2021/10/05 10:15:35;;;;;;;7.07;3.10;;;15.30;97.20;;;;;;5072166;28;20321;-72
2021/10/05 10:18:08;;;;;;;7.00;2.40;;;15.60;97.40;;;;;;5055506;28;20057;-72
2021/10/05 10:20:35;;;;;;;4.85;2.28;;;15.70;97.40;;;;;;5057263;28;20364;-72
2021/10/05 10:23:03;;;;;;;15.80;3.30;;;15.90;97.20;;;;;;5059979;28;20086;-72
2021/10/05 10:25:32;;;;;;;4.57;2.05;;;16.40;97.30;;;;;;5071858;28;20115;-72
2021/10/05 10:28:13;;;;;;;4.30;2.00;;;16.90;95.70;;;;;;5071527;28;20060;-72
2021/10/05 10:30:51;;;;;;;4.35;1.88;;;16.40;94.00;;;;;;5061081;28;20057;-72
2021/10/05 10:33:19;;;;;;;3.25;1.67;;;16.40;94.30;;;;;;5071327;28;20047;-72
2021/10/05 10:35:54;;;;;;;4.32;1.60;;;16.40;92.10;;;;;;5070187;28;20031;-71
2021/10/05 10:38:23;;;;;;;4.18;1.73;;;16.40;93.70;;;;;;5069855;28;20040;-72
2021/10/05 10:40:49;;;;;;;3.92;1.65;;;16.40;94.20;;;;;;5053194;28;20030;-72
2021/10/05 10:43:21;;;;;;;3.22;1.50;;;16.20;94.40;;;;;;5061275;28;20313;-71
2021/10/05 10:45:53;;;;;;;3.72;1.50;;;16.30;94.10;;;;;;5069598;28;20095;-71
2021/10/05 10:48:32;;;;;;;2.92;1.35;;;16.40;93.50;;;;;;5066942;28;20358;-71
2021/10/05 10:51:21;;;;;;;2.60;1.13;;;16.50;92.50;;;;;;5066465;28;20031;-72
2021/10/05 10:53:49;;;;;;;3.25;1.30;;;16.70;91.10;;;;;;5067823;28;20040;-70
2021/10/05 10:56:26;;;;;;;2.20;1.20;;;16.90;90.90;;;;;;5058204;28;20013;-70
2021/10/05 10:58:58;;;;;;;2.33;1.10;;;17.10;92.20;;;;;;5055905;28;20025;-69
2021/10/05 11:01:40;;;;;;;2.75;1.20;;;16.90;90.60;;;;;;5071603;28;20029;-71
2021/10/05 11:04:09;;;;;;;3.40;1.60;;;16.40;93.40;;;;;;5069820;28;20113;-69
2021/10/05 11:06:35;;;;;;;2.80;1.40;;;15.90;91.90;;;;;;5066028;28;20044;-69
2021/10/05 11:09:05;;;;;;;2.72;1.40;;;15.50;94.10;;;;;;5076243;28;20082;-70
2021/10/05 11:11:43;;;;;;;3.63;1.60;;;15.30;95.70;;;;;;5070990;28;20016;-71
2021/10/05 11:14:13;;;;;;;3.25;1.40;;;15.30;95.00;;;;;;5066432;28;20396;-68
2021/10/05 11:16:42;;;;;;;3.25;1.60;;;15.60;96.10;;;;;;5058444;28;20032;-69
2021/10/05 11:19:12;;;;;;;4.65;2.97;;;16.00;95.90;;;;;;5057899;28;20059;-70
2021/10/05 11:21:41;;;;;;;4.97;1.90;;;16.60;94.90;;;;;;5074268;28;20047;-70
2021/10/05 11:24:07;;;;;;;4.50;3.30;;;16.70;93.00;;;;;;5064895;28;20506;-70
2021/10/05 11:26:40;;;;;;;4.55;2.60;;;16.40;94.10;;;;;;5076816;28;20056;-69
2021/10/05 11:29:07;;;;;;;4.53;3.00;;;16.20;93.50;;;;;;5076709;28;20070;-70
2021/10/05 11:31:49;;;;;;;5.90;3.90;;;15.60;95.20;;;;;;5061551;28;20021;-70
2021/10/05 11:34:17;;;;;;;3.75;1.73;;;15.30;96.50;;;;;;5061514;28;20016;-70
2021/10/05 11:36:44;;;;;;;4.43;1.70;;;15.00;97.30;;;;;;5076443;28;20059;-70
2021/10/05 11:39:17;;;;;;;3.35;1.80;;;14.80;97.90;;;;;;5075462;28;20020;-69
2021/10/05 11:41:45;;;;;;;5.60;3.05;;;14.60;97.80;;;;;;5073385;28;20029;-70
2021/10/05 11:44:22;;;;;;;5.25;2.10;;;14.50;98.00;;;;;;5065229;28;20336;-70
2021/10/05 11:47:03;;;;;;;8.05;5.13;;;14.60;98.00;;;;;;5075635;28;20021;-70
2021/10/05 11:49:37;;;;;;;7.18;3.58;;;14.80;98.00;;;;;;5076103;28;20049;-70
2021/10/05 11:52:08;;;;;;;4.97;1.90;;;14.80;98.00;;;;;;5074803;28;20103;-70
2021/10/05 11:54:35;;;;;;;10.15;8.27;;;14.90;98.00;;;;;;5069988;28;20358;-69
2021/10/05 11:57:09;;;;;;;8.65;5.38;;;15.00;97.90;;;;;;5063340;28;20017;-70
2021/10/05 11:59:35;;;;;;;;;;;15.00;98.00;;;;;;5075500;28;20036;-69
2021/10/05 12:02:03;;;;;;;9.68;7.97;;;15.00;97.50;;;;;;5061172;28;19917;-69
2021/10/05 12:04:30;;;;;;;4.65;2.50;;;15.10;97.70;;;;;;5067959;28;20039;-70
2021/10/05 12:07:10;;;;;;;3.08;1.60;;;15.20;97.80;;;;;;5063441;28;20107;-69
2021/10/05 12:09:37;;;;;;;2.92;1.40;;;15.20;96.40;;;;;;5067487;28;20013;-70
2021/10/05 12:12:18;;;;;;;3.63;1.50;;;15.20;97.50;;;;;;5075288;28;20051;-70
2021/10/05 12:14:54;;;;;;;2.67;1.42;;;15.20;96.90;;;;;;5074441;28;20031;-69
2021/10/05 12:17:20;;;;;;;2.83;1.65;;;15.20;96.70;;;;;;5075565;28;20016;-69
2021/10/05 12:20:02;;;;;;;3.15;1.70;;;15.40;97.40;;;;;;5075107;28;20431;-69
2021/10/05 12:22:40;;;;;;;2.63;1.30;;;15.40;97.20;;;;;;5056101;28;20020;-70
2021/10/05 12:25:20;;;;;;;2.17;1.25;;;15.50;96.30;;;;;;5073831;28;20436;-70
2021/10/05 12:27:52;;;;;;;8.02;3.45;;;15.80;96.40;;;;;;5075289;28;20028;-70
2021/10/05 12:30:21;;;;;;;2.63;1.27;;;16.10;96.60;;;;;;5075235;28;20039;-71
2021/10/05 12:32:58;;;;;;;2.28;1.10;;;16.20;95.80;;;;;;5074589;28;20447;-70
2021/10/05 12:35:29;;;;;;;11.73;7.32;;;16.40;94.30;;;;;;5072034;28;20063;-69
2021/10/05 12:37:59;;;;;;;4.25;2.38;;;16.70;94.00;;;;;;5074384;28;20020;-70
2021/10/05 12:41:04;;;;;;;3.58;1.45;;;16.70;95.00;;;;;;5074052;28;20103;-70
2021/10/05 12:43:36;;;;;;;2.25;1.10;;;16.40;93.90;;;;;;5072900;28;20090;-69